Buchanan Airport

Jump to: basic info | weather | comments

Related pages: nearby airports | nearby navaids | notams | map

Basic information (top)

Codes: UCN GLBU
Location: lon 5.167650, lat -9.283470, elev 41 ft / 12 m msl
Status: small_airport
Scheduled airline service: no
Links: Wikipedia Mobile

Weather (top)

Current conditions for Roberts International Airport 91nm (168km) NW (rec'd 2014/09/02 16:00Z):

GLRB 021600Z 00000KT 9999 BKN013 FEW023CB 25/23 Q1012 RMK CB-N/E

Airport forecast for Roberts International Airport 91nm (168km) NW (rec'd 2014/09/02 06:36Z):

TAF TAF GLRB 020400Z 0206/0312 22010KT 9999 BKN016 
      BECMG 0207/0209 06004KT 9000 
      TEMPO 0210/0214 24012KT 7000 RA/TSRA SCT004 BKN014 FEW024CB

Latest comments (top)

No comments yet for Buchanan Airport

More... (top)

See also NOTAMs and nearby airports and navaids, or visit the Buchanan Airport page at the main OurAirports website..